Terminal Aerodrome Forecast
Issued by NWS

Home | Current Version | Previous Version | Text Only | Print | Product List | Glossary On
Versions: 1 2 3 4 5 6 7 8 9 10 11 12
000
FTUS46 KLOX 011126
TAFPRB
TAF
KPRB 011126Z 0112/0212 VRB03KT P6SM SCT250
     FM011900 22008KT P6SM SCT080 BKN120
     FM012200 21018G26KT P6SM SCT080 BKN120
     FM020200 21010KT P6SM SCT150
     FM020600 VRB03KT P6SM SCT150=

USA.gov is the U.S. government's official web portal to all federal, state and local government web resources and services.